Rock Island, Illinois
Current Conditions -  °F | °C
As of 3:52 AM on Friday 19 Dec 2014 (Local Time) from KMLI Reporting Station
Haze Haze  
Wind Chill: 16°   Ceiling: Unl
Heat Index: 16°   Visibility: 6mi
Dew Point: 12°   Wind: 0mph
Humidity: 84%   Direction: NA
Pressure: 30.3"   Gusts: NA
Location:  41.51°N, 90.58°W
Report Text: KMLI 190952Z AUTO 00000KT 6SM BR CLR M09/M11 A3030 RMK AO2 SLP271 I1000 T10891111
Loading
Personal Weather Stations






























Interactive Weather Map New forecast layout! Learn more

10-Day Weather Forecast

Advertisements
Track Severe Weather on mobile